createdAt,value
2019-02-18T11:40:50.079Z,68
2019-02-18T11:42:50.415Z,57
2019-02-18T11:44:50.685Z,22
2019-02-18T11:46:49.932Z,35
2019-02-18T11:48:50.134Z,24
2019-02-18T11:50:50.430Z,31
2019-02-18T11:52:50.571Z,28
2019-02-18T11:54:49.843Z,34
2019-02-18T11:56:50.169Z,31
2019-02-18T11:58:50.399Z,23
2019-02-18T12:00:50.604Z,34
2019-02-18T12:02:49.878Z,20
2019-02-18T12:04:50.492Z,24
2019-02-18T12:06:49.838Z,28
2019-02-18T12:08:50.124Z,33
2019-02-18T12:10:50.465Z,27
2019-02-18T12:12:50.697Z,22
2019-02-18T12:14:50.784Z,24
2019-02-18T12:16:50.077Z,23
2019-02-18T12:18:50.380Z,26
2019-02-18T12:20:50.595Z,31
2019-02-18T12:22:49.852Z,20
2019-02-18T12:24:50.119Z,31
2019-02-18T12:26:50.397Z,8
2019-02-18T12:28:50.581Z,0
2019-02-18T12:30:49.851Z,5
2019-02-18T12:32:50.156Z,3
2019-02-18T12:34:49.973Z,0
2019-02-18T12:36:50.342Z,0
2019-02-18T12:38:50.504Z,2
2019-02-18T12:40:49.755Z,5
2019-02-18T12:42:50.101Z,0
2019-02-18T12:44:50.377Z,0
2019-02-18T12:46:50.648Z,0
2019-02-18T12:48:49.983Z,0
2019-02-18T12:50:50.367Z,0
2019-02-18T12:52:50.894Z,0
2019-02-18T12:54:50.528Z,0
2019-02-18T12:56:50.093Z,0
2019-02-18T12:58:55.243Z,0
2019-02-18T13:00:50.578Z,0
2019-02-18T13:02:49.959Z,0
2019-02-18T13:04:50.488Z,0
2019-02-18T13:06:50.265Z,0
2019-02-18T13:08:50.579Z,0
2019-02-18T13:10:49.974Z,0
2019-02-18T13:12:50.410Z,0
2019-02-18T13:14:50.626Z,9
2019-02-18T13:16:50.172Z,0
2019-02-18T13:18:50.523Z,0
2019-02-18T13:20:50.018Z,0
2019-02-18T13:22:50.427Z,0
2019-02-18T13:24:50.689Z,0
2019-02-18T13:26:49.973Z,0
2019-02-18T13:28:50.314Z,0
2019-02-18T13:30:50.594Z,0
2019-02-18T13:32:50.100Z,0
2019-02-18T13:34:50.027Z,0
2019-02-18T13:36:50.777Z,0
2019-02-18T13:38:50.123Z,22
2019-02-18T13:40:50.396Z,0
2019-02-18T13:42:50.582Z,0
2019-02-18T13:44:50.883Z,0
2019-02-18T13:46:50.322Z,0
2019-02-18T13:48:49.814Z,0
2019-02-18T13:50:50.244Z,0
2019-02-18T13:52:50.474Z,0
2019-02-18T13:54:49.776Z,0
2019-02-18T13:56:50.114Z,0
2019-02-18T13:58:50.278Z,0
2019-02-18T14:00:50.587Z,7
2019-02-18T14:02:49.977Z,1
2019-02-18T14:04:50.695Z,12
2019-02-18T14:06:49.987Z,26
2019-02-18T14:08:50.235Z,28
2019-02-18T14:10:50.563Z,35
2019-02-18T14:12:49.910Z,26
2019-02-18T14:14:50.174Z,31
2019-02-18T14:16:50.467Z,27
2019-02-18T14:18:49.792Z,25
2019-02-18T14:20:50.038Z,26
2019-02-18T14:22:50.362Z,36
2019-02-18T14:24:50.535Z,24
2019-02-18T14:26:49.990Z,34
2019-02-18T14:28:50.283Z,23
2019-02-18T14:30:50.638Z,34
2019-02-18T14:32:49.852Z,31
2019-02-18T14:34:50.410Z,20
2019-02-18T14:36:49.819Z,41
2019-02-18T14:38:50.657Z,39
2019-02-18T14:40:50.718Z,55
2019-02-18T14:42:50.115Z,31
2019-02-18T14:44:52.260Z,23
2019-02-18T14:46:51.258Z,26
2019-02-18T14:48:50.604Z,30
2019-02-18T14:50:57.374Z,28
2019-02-18T14:52:50.702Z,31
2019-02-18T14:54:49.940Z,32
2019-02-18T14:56:50.338Z,21
2019-02-18T14:58:50.604Z,30
2019-02-18T15:00:50.010Z,18
2019-02-18T15:02:50.274Z,18
